createdAt,value
2018-05-06T00:02:40.525Z,89.00
2018-05-06T00:08:44.881Z,89.00
2018-05-06T00:14:50.248Z,90.50
2018-05-06T00:20:54.660Z,90.50
2018-05-06T00:26:59.792Z,90.60
2018-05-06T00:33:04.149Z,90.50
2018-05-06T00:39:08.615Z,90.90
2018-05-06T00:45:12.963Z,91.20
2018-05-06T00:51:17.355Z,91.50
2018-05-06T00:57:21.733Z,91.90
2018-05-06T01:03:26.104Z,92.40
2018-05-06T01:09:31.216Z,93.50
2018-05-06T01:15:35.579Z,93.50
2018-05-06T01:21:39.943Z,94.20
2018-05-06T01:27:45.057Z,94.80
2018-05-06T01:33:49.953Z,94.80
2018-05-06T01:39:54.582Z,94.80
2018-05-06T01:45:58.931Z,94.80
2018-05-06T01:52:03.286Z,94.70
2018-05-06T01:58:07.661Z,94.40
2018-05-06T02:04:12.002Z,94.50
2018-05-06T02:10:17.118Z,95.70
2018-05-06T02:16:21.757Z,95.60
2018-05-06T02:22:26.110Z,95.50
2018-05-06T02:28:30.518Z,96.00
2018-05-06T02:34:35.700Z,96.50
2018-05-06T02:40:40.058Z,96.20
2018-05-06T02:46:44.430Z,96.30
2018-05-06T02:52:48.865Z,96.70
2018-05-06T02:58:53.325Z,96.70
2018-05-06T03:04:58.480Z,97.40
2018-05-06T03:11:02.888Z,97.40
2018-05-06T03:17:08.011Z,97.90
2018-05-06T03:23:12.485Z,97.80
2018-05-06T03:29:16.839Z,98.20
2018-05-06T03:35:22.073Z,98.60
2018-05-06T03:41:26.604Z,98.60
2018-05-06T03:47:31.018Z,98.80
2018-05-06T03:53:35.371Z,99.30
2018-05-06T03:59:57.680Z,99.70
2018-05-06T04:06:02.142Z,99.90
2018-05-06T04:12:07.543Z,99.70
2018-05-06T04:18:11.892Z,99.70
2018-05-06T04:24:17.012Z,99.90
2018-05-06T04:30:21.512Z,99.90
2018-05-06T04:36:26.091Z,99.90
2018-05-06T04:42:31.159Z,99.90
2018-05-06T04:48:35.524Z,99.90
2018-05-06T04:54:40.644Z,99.90
2018-05-06T05:00:45.021Z,99.90
2018-05-06T05:06:49.491Z,99.90
2018-05-06T05:12:53.974Z,99.50
2018-05-06T05:18:58.385Z,99.20
2018-05-06T05:25:02.812Z,98.40
2018-05-06T05:31:07.178Z,98.20
2018-05-06T05:37:11.566Z,97.90
2018-05-06T05:43:15.939Z,97.40
2018-05-06T05:49:20.358Z,96.60
2018-05-06T05:55:24.988Z,96.40
2018-05-06T06:07:40.418Z,96.20
2018-05-06T06:13:44.882Z,96.20
2018-05-06T06:19:49.298Z,92.30
2018-05-06T06:25:53.915Z,91.60
2018-05-06T06:31:59.070Z,92.30
2018-05-06T06:38:03.441Z,92.30
2018-05-06T06:44:07.843Z,93.00
2018-05-06T06:50:13.000Z,90.30
2018-05-06T06:56:17.416Z,90.20
2018-05-06T07:02:22.751Z,91.30
2018-05-06T07:08:27.148Z,91.30
2018-05-06T07:14:31.537Z,91.40
2018-05-06T07:20:35.953Z,90.80
2018-05-06T07:26:40.340Z,90.30
2018-05-06T07:32:44.719Z,90.00
2018-05-06T07:38:49.273Z,91.00
2018-05-06T07:44:53.754Z,90.30
2018-05-06T07:50:58.902Z,80.40
2018-05-06T07:57:03.289Z,80.40
2018-05-06T08:03:07.684Z,80.00
2018-05-06T08:09:12.923Z,74.20
2018-05-06T08:15:17.275Z,74.00
2018-05-06T08:21:21.665Z,79.10
2018-05-06T08:27:26.064Z,75.20
2018-05-06T08:33:30.453Z,72.60
2018-05-06T08:39:34.815Z,75.50
2018-05-06T08:45:39.268Z,70.30
2018-05-06T08:51:43.651Z,72.90
2018-05-06T08:57:48.012Z,68.40
2018-05-06T09:03:52.854Z,66.20
2018-05-06T09:09:57.223Z,68.10
2018-05-06T09:16:01.608Z,69.40
2018-05-06T09:22:05.967Z,64.60
2018-05-06T09:28:10.414Z,64.60
2018-05-06T09:34:14.790Z,57.70
2018-05-06T09:40:19.724Z,61.80
2018-05-06T09:46:24.969Z,57.30
2018-05-06T09:52:29.357Z,57.30
2018-05-06T09:58:34.523Z,56.50
2018-05-06T10:04:38.874Z,56.40
2018-05-06T10:10:44.059Z,52.20
2018-05-06T10:16:49.193Z,53.30
2018-05-06T10:22:53.551Z,53.30
2018-05-06T10:28:57.936Z,50.50
2018-05-06T10:35:02.438Z,46.30
2018-05-06T10:41:06.798Z,50.30
2018-05-06T10:47:11.237Z,47.30
2018-05-06T10:53:15.687Z,45.30
2018-05-06T10:59:20.123Z,49.20
2018-05-06T11:05:24.543Z,45.10
2018-05-06T11:11:28.936Z,42.80
2018-05-06T11:17:34.061Z,40.00
2018-05-06T11:23:38.418Z,40.00
2018-05-06T11:29:42.820Z,40.10
2018-05-06T11:35:47.207Z,37.80
2018-05-06T11:41:52.287Z,37.80
2018-05-06T11:47:56.657Z,35.70
2018-05-06T11:54:01.212Z,39.80
2018-05-06T12:00:05.574Z,39.40
2018-05-06T12:06:10.699Z,34.60
2018-05-06T12:12:15.156Z,34.50
2018-05-06T12:18:19.705Z,35.00
2018-05-06T12:24:24.088Z,31.70
2018-05-06T12:30:29.235Z,33.50
2018-05-06T12:36:33.607Z,32.70
2018-05-06T12:42:37.959Z,31.90
2018-05-06T12:48:42.528Z,30.80
2018-05-06T12:54:47.697Z,31.00
2018-05-06T13:00:52.171Z,31.00
2018-05-06T13:06:56.731Z,32.00
2018-05-06T13:13:01.111Z,30.30
2018-05-06T13:19:05.511Z,28.80
2018-05-06T13:25:09.878Z,28.90
2018-05-06T13:31:14.269Z,28.10
2018-05-06T13:37:20.730Z,28.50
2018-05-06T13:43:25.409Z,28.40
2018-05-06T13:49:29.778Z,30.20
2018-05-06T13:55:34.251Z,28.30
2018-05-06T14:01:38.688Z,30.00
2018-05-06T14:07:43.939Z,30.00
2018-05-06T14:13:48.412Z,30.00
2018-05-06T14:19:53.018Z,29.30
2018-05-06T14:25:57.448Z,29.30
2018-05-06T14:32:01.808Z,29.30
2018-05-06T14:38:07.035Z,25.90
2018-05-06T14:44:11.401Z,25.80
2018-05-06T14:50:15.784Z,25.70
2018-05-06T14:56:20.403Z,26.90
2018-05-06T15:02:24.841Z,27.10
2018-05-06T15:08:29.251Z,24.10
2018-05-06T15:14:36.949Z,25.40
2018-05-06T15:20:41.447Z,24.40
2018-05-06T15:26:45.922Z,25.00
2018-05-06T15:32:50.287Z,23.00
2018-05-06T15:38:54.873Z,24.20
2018-05-06T15:44:59.301Z,24.50
2018-05-06T15:51:03.685Z,24.00
2018-05-06T15:57:08.083Z,25.40
2018-05-06T16:03:30.801Z,26.90
2018-05-06T16:09:35.261Z,26.80
2018-05-06T16:15:40.413Z,28.20
2018-05-06T16:21:44.790Z,28.20
2018-05-06T16:27:49.335Z,27.90
2018-05-06T16:33:53.842Z,27.10
2018-05-06T16:39:58.226Z,26.90
2018-05-06T16:46:02.591Z,28.20
2018-05-06T16:52:06.948Z,28.50
2018-05-06T16:58:11.546Z,28.10
2018-05-06T17:04:16.006Z,29.50
2018-05-06T17:10:20.615Z,29.90
2018-05-06T17:16:25.306Z,29.10
2018-05-06T17:22:29.739Z,29.70
2018-05-06T17:28:34.109Z,30.60
2018-05-06T17:34:38.471Z,30.30
2018-05-06T17:40:42.857Z,30.30
2018-05-06T17:46:47.343Z,29.40
2018-05-06T17:52:52.048Z,30.00
2018-05-06T17:58:57.301Z,31.70
2018-05-06T18:05:01.685Z,31.70
2018-05-06T18:11:06.044Z,31.90
2018-05-06T18:17:10.447Z,32.80
2018-05-06T18:23:14.877Z,34.10
2018-05-06T18:29:20.421Z,37.90
2018-05-06T18:35:24.878Z,37.80
2018-05-06T18:41:29.247Z,40.90
2018-05-06T18:47:33.626Z,44.30
2018-05-06T18:53:37.995Z,47.20
2018-05-06T18:59:42.395Z,48.80
2018-05-06T19:05:46.864Z,50.80
2018-05-06T19:11:52.003Z,52.80
2018-05-06T19:17:56.479Z,53.10
2018-05-06T19:24:00.867Z,54.20
2018-05-06T19:30:05.350Z,54.60
2018-05-06T19:36:09.714Z,55.40
2018-05-06T19:42:14.091Z,56.40
2018-05-06T19:48:18.652Z,56.70
2018-05-06T19:54:23.292Z,56.40
2018-05-06T20:00:27.659Z,58.70
2018-05-06T20:06:32.040Z,62.40
2018-05-06T20:12:36.490Z,64.70
2018-05-06T20:18:41.613Z,73.70
2018-05-06T20:24:45.987Z,73.60
2018-05-06T20:30:50.462Z,78.70
2018-05-06T20:36:55.064Z,82.70
2018-05-06T20:42:59.428Z,86.70
2018-05-06T20:49:03.786Z,89.00
2018-05-06T20:55:08.168Z,90.20
2018-05-06T21:01:13.296Z,91.70
2018-05-06T21:07:17.689Z,91.70
2018-05-06T21:13:22.151Z,92.70
2018-05-06T21:19:26.542Z,93.10
2018-05-06T21:25:30.896Z,93.70
2018-05-06T21:31:35.268Z,94.10
2018-05-06T21:37:39.686Z,93.80
2018-05-06T21:43:44.820Z,93.10
2018-05-06T21:49:49.397Z,93.10
2018-05-06T21:55:54.299Z,93.00
2018-05-06T22:01:58.771Z,93.00
2018-05-06T22:08:03.293Z,93.10
2018-05-06T22:14:07.687Z,93.30
2018-05-06T22:20:12.836Z,92.90
2018-05-06T22:26:17.240Z,92.90
2018-05-06T22:32:21.781Z,92.80
2018-05-06T22:38:26.149Z,92.70
2018-05-06T22:44:30.529Z,92.80
2018-05-06T22:50:34.949Z,93.00
2018-05-06T22:56:39.372Z,92.80
2018-05-06T23:02:43.788Z,93.30
2018-05-06T23:08:48.260Z,93.80
2018-05-06T23:14:53.028Z,94.60
2018-05-06T23:20:57.567Z,95.00
2018-05-06T23:27:01.958Z,96.00
2018-05-06T23:33:06.335Z,96.70
2018-05-06T23:39:10.701Z,97.30
2018-05-06T23:45:15.101Z,97.90
2018-05-06T23:51:20.236Z,98.90
2018-05-06T23:57:25.450Z,99.00
